createdAt,value
2022-11-04T00:03:02.665Z,100541.07
2022-11-04T00:08:24.564Z,100539.46
2022-11-04T00:13:30.402Z,100526.29
2022-11-04T00:18:35.829Z,100520.95
2022-11-04T00:24:04.944Z,100515.39
2022-11-04T00:29:07.744Z,100517.08
2022-11-04T00:34:10.669Z,100506.12
2022-11-04T00:39:13.546Z,100495.73
2022-11-04T00:44:16.477Z,100493.54
2022-11-04T00:49:19.266Z,100495.34
2022-11-04T00:54:22.632Z,100483.04
2022-11-04T00:59:25.537Z,100471.07
2022-11-04T01:04:28.418Z,100462.52
2022-11-04T01:09:31.195Z,100445.20
2022-11-04T01:14:34.281Z,100442.70
2022-11-04T01:19:38.112Z,100432.33
2022-11-04T01:24:41.250Z,100425.41
2022-11-04T01:29:44.260Z,100423.33
2022-11-04T01:34:47.146Z,100418.63
2022-11-04T01:39:50.070Z,100412.61
2022-11-04T01:44:58.255Z,100396.06
2022-11-04T01:50:24.106Z,100386.20
2022-11-04T01:55:36.110Z,100383.30
2022-11-04T02:00:40.114Z,100382.27
2022-11-04T02:05:43.006Z,100370.18
2022-11-04T02:10:52.860Z,100357.04
2022-11-04T02:16:12.019Z,100349.73
2022-11-04T02:22:06.973Z,100343.61
2022-11-04T02:27:40.568Z,100328.33
2022-11-04T02:33:18.915Z,100318.98
2022-11-04T02:38:29.792Z,100321.08
2022-11-04T02:44:13.127Z,100320.75
2022-11-04T02:49:44.534Z,100312.23
2022-11-04T02:55:01.021Z,100302.85
2022-11-04T03:00:09.605Z,100300.23
2022-11-04T03:05:19.876Z,100300.89
2022-11-04T03:10:36.004Z,100299.84
2022-11-04T03:15:40.527Z,100299.30
2022-11-04T03:20:43.475Z,100294.52
2022-11-04T03:25:48.256Z,100295.71
2022-11-04T03:30:53.341Z,100294.73
2022-11-04T03:35:56.232Z,100289.34
2022-11-04T03:40:59.097Z,100286.67
2022-11-04T03:46:02.022Z,100279.05
2022-11-04T03:51:04.910Z,100275.23
2022-11-04T03:56:45.038Z,100275.30
2022-11-04T04:01:54.404Z,100275.38
2022-11-04T04:07:05.741Z,100265.80
2022-11-04T04:12:22.163Z,100255.81
2022-11-04T04:17:52.785Z,100244.51
2022-11-04T04:23:25.568Z,100236.90
2022-11-04T04:28:28.471Z,100233.52
2022-11-04T04:33:31.382Z,100234.98
2022-11-04T04:38:53.274Z,100245.61
2022-11-04T04:44:16.480Z,100241.55
2022-11-04T04:49:19.352Z,100252.08
2022-11-04T04:54:22.317Z,100252.41
2022-11-04T04:59:25.271Z,100249.20
2022-11-04T05:04:28.069Z,100242.60
2022-11-04T05:09:31.007Z,100242.61
2022-11-04T05:14:33.799Z,100237.38
2022-11-04T05:19:36.842Z,100227.63
2022-11-04T05:24:39.659Z,100230.08
2022-11-04T05:29:42.811Z,100232.39
2022-11-04T05:34:45.633Z,100230.00
2022-11-04T05:39:48.521Z,100227.12
2022-11-04T05:44:51.289Z,100220.93
2022-11-04T05:49:56.864Z,100223.63
2022-11-04T05:55:00.029Z,100222.52
2022-11-04T06:00:03.492Z,100217.70
2022-11-04T06:05:07.424Z,100209.92
2022-11-04T06:10:10.999Z,100197.38
2022-11-04T06:15:13.912Z,100189.39
2022-11-04T06:20:16.876Z,100181.89
2022-11-04T06:25:19.735Z,100180.02
2022-11-04T06:30:23.815Z,100182.95
2022-11-04T06:35:26.701Z,100181.28
2022-11-04T06:40:41.937Z,100172.38
2022-11-04T06:45:44.818Z,100175.80
2022-11-04T06:50:47.675Z,100174.77
2022-11-04T06:55:52.333Z,100177.81
2022-11-04T07:00:55.314Z,100175.05
2022-11-04T07:05:58.293Z,100169.68
2022-11-04T07:11:01.700Z,100169.70
2022-11-04T07:16:06.492Z,100176.75
2022-11-04T07:21:10.472Z,100179.33
2022-11-04T07:26:13.895Z,100175.59
2022-11-04T07:31:18.178Z,100179.10
2022-11-04T07:36:21.047Z,100177.23
2022-11-04T07:41:24.039Z,100167.04
2022-11-04T07:46:26.888Z,100170.05
2022-11-04T07:51:32.273Z,100158.19
2022-11-04T07:56:35.068Z,100152.70
2022-11-04T08:01:37.976Z,100152.02
2022-11-04T08:06:40.826Z,100146.17
2022-11-04T08:11:43.599Z,100143.72
2022-11-04T08:16:46.409Z,100135.75
2022-11-04T08:21:49.213Z,100131.40
2022-11-04T08:26:52.093Z,100128.42
2022-11-04T08:31:55.071Z,100132.27
2022-11-04T08:36:58.819Z,100120.66
2022-11-04T08:42:01.648Z,100117.98
2022-11-04T08:47:04.658Z,100120.09
2022-11-04T08:52:07.595Z,100112.86
2022-11-04T08:57:10.373Z,100102.14
2022-11-04T09:02:16.458Z,100100.16
2022-11-04T09:07:19.466Z,100100.60
2022-11-04T09:12:22.285Z,100096.30
2022-11-04T09:17:25.414Z,100092.98
2022-11-04T09:22:28.419Z,100097.15
2022-11-04T09:27:31.190Z,100093.17
2022-11-04T09:32:35.997Z,100097.05
2022-11-04T09:37:38.804Z,100093.13
2022-11-04T09:42:53.205Z,100093.83
2022-11-04T09:48:00.508Z,100087.81
2022-11-04T09:53:12.893Z,100082.05
2022-11-04T09:58:15.827Z,100067.06
2022-11-04T10:03:44.528Z,100062.10
2022-11-04T10:08:50.537Z,100059.39
2022-11-04T10:14:19.203Z,100057.08
2022-11-04T10:19:31.179Z,100048.61
2022-11-04T10:24:50.611Z,100046.61
2022-11-04T10:30:00.066Z,100040.88
2022-11-04T10:35:47.551Z,100031.52
2022-11-04T10:40:52.952Z,100021.65
2022-11-04T10:46:31.236Z,100011.54
2022-11-04T10:51:37.380Z,100000.34
2022-11-04T10:56:51.644Z,99992.63
2022-11-04T11:01:59.462Z,99989.47
2022-11-04T11:07:05.585Z,99990.17
2022-11-04T11:12:48.877Z,99979.90
2022-11-04T11:17:38.491Z,99973.98
2022-11-04T11:22:43.720Z,99971.46
2022-11-04T11:27:52.296Z,99964.48
2022-11-04T11:32:58.822Z,99952.52
2022-11-04T11:38:04.180Z,99954.46
2022-11-04T11:43:07.291Z,99952.86
2022-11-04T11:48:32.531Z,99949.30
2022-11-04T11:53:38.490Z,99947.31
2022-11-04T12:09:50.846Z,99946.23
2022-11-04T12:15:39.296Z,99942.30
2022-11-04T12:21:03.669Z,99937.16
2022-11-04T12:26:36.763Z,99930.57
2022-11-04T12:32:03.898Z,99926.40
2022-11-04T12:37:39.057Z,99924.52
2022-11-04T12:43:07.565Z,99924.70
2022-11-04T12:48:19.520Z,99926.04
2022-11-04T12:53:45.693Z,99916.05
2022-11-04T12:59:00.877Z,99913.83
2022-11-04T13:04:07.272Z,99921.02
2022-11-04T13:09:45.706Z,99912.44
2022-11-04T13:14:53.081Z,99915.89
2022-11-04T13:20:00.557Z,99903.77
2022-11-04T13:25:25.232Z,99905.36
2022-11-04T13:30:57.320Z,99920.84
2022-11-04T13:36:13.546Z,99925.70
2022-11-04T13:41:21.257Z,99925.77
2022-11-04T13:46:31.009Z,99927.98
2022-11-04T13:52:01.576Z,99926.52
2022-11-04T13:57:16.133Z,99928.59
2022-11-04T14:02:23.838Z,99932.53
2022-11-04T14:07:58.912Z,99938.27
2022-11-04T14:13:35.214Z,99938.95
2022-11-04T14:18:43.108Z,99942.26
2022-11-04T14:23:56.995Z,99940.29
2022-11-04T14:29:18.207Z,99937.40
2022-11-04T14:34:30.328Z,99937.96
2022-11-04T14:39:37.940Z,99936.57
2022-11-04T14:44:49.826Z,99933.66
2022-11-04T14:50:08.728Z,99930.56
2022-11-04T14:55:11.583Z,99927.64
2022-11-04T15:00:39.374Z,99929.89
2022-11-04T15:05:51.335Z,99932.42
2022-11-04T15:11:00.132Z,99933.55
2022-11-04T15:16:28.626Z,99931.00
2022-11-04T15:21:31.506Z,99933.92
2022-11-04T15:26:35.289Z,99932.30
2022-11-04T15:31:39.461Z,99933.63
2022-11-04T15:36:43.009Z,99933.46
2022-11-04T15:42:05.250Z,99936.14
2022-11-04T15:47:17.457Z,99943.65
2022-11-04T15:52:27.982Z,99942.60
2022-11-04T15:57:35.148Z,99949.34
2022-11-04T16:02:40.385Z,99958.77
2022-11-04T16:07:45.064Z,99954.10
2022-11-04T16:12:47.867Z,99950.48
2022-11-04T16:17:50.690Z,99952.41
2022-11-04T16:23:18.025Z,99954.45
2022-11-04T16:28:21.300Z,99956.37
2022-11-04T16:33:24.285Z,99955.33
2022-11-04T16:38:27.260Z,99948.88
2022-11-04T16:43:30.066Z,99950.34
2022-11-04T16:48:33.008Z,99955.59
2022-11-04T16:53:35.900Z,99955.32
2022-11-04T16:58:38.856Z,99957.89
2022-11-04T17:03:45.507Z,99960.92
2022-11-04T17:08:48.348Z,99953.40
2022-11-04T17:13:51.291Z,99955.34
2022-11-04T17:18:54.098Z,99937.08
2022-11-04T17:23:57.057Z,99930.26
2022-11-04T17:29:00.270Z,99922.57
2022-11-04T17:34:03.618Z,99917.23
2022-11-04T17:39:06.436Z,99914.98
2022-11-04T17:44:09.317Z,99908.21
2022-11-04T17:49:20.779Z,99909.87
2022-11-04T17:54:25.324Z,99909.86
2022-11-04T17:59:32.419Z,99911.79
2022-11-04T18:04:38.391Z,99906.27
2022-11-04T18:09:41.675Z,99895.91
2022-11-04T18:14:44.829Z,99889.64
2022-11-04T18:19:47.689Z,99882.05
2022-11-04T18:24:50.672Z,99878.02
2022-11-04T18:29:53.949Z,99888.60
2022-11-04T18:34:57.656Z,99892.98
2022-11-04T18:40:00.517Z,99895.34
2022-11-04T18:45:03.662Z,99889.33
2022-11-04T18:50:07.225Z,99889.95
2022-11-04T18:55:10.226Z,99886.29
2022-11-04T19:00:17.006Z,99890.45
2022-11-04T19:05:20.553Z,99894.58
2022-11-04T19:10:23.458Z,99894.04
2022-11-04T19:15:26.568Z,99890.08
2022-11-04T19:20:29.494Z,99893.46
2022-11-04T19:25:32.384Z,99889.80
2022-11-04T19:30:35.957Z,99887.85
2022-11-04T19:35:38.871Z,99896.73
2022-11-04T19:40:52.769Z,99894.42
2022-11-04T19:46:04.399Z,99895.34
2022-11-04T19:51:12.053Z,99896.21
2022-11-04T19:56:15.991Z,99885.81
2022-11-04T20:01:19.060Z,99882.95
2022-11-04T20:06:21.942Z,99879.79
2022-11-04T20:11:25.112Z,99885.82
2022-11-04T20:16:30.112Z,99888.73
2022-11-04T20:21:36.095Z,99895.66
2022-11-04T20:26:39.592Z,99895.80
2022-11-04T20:31:51.559Z,99892.29
2022-11-04T20:36:54.492Z,99884.70
2022-11-04T20:41:57.352Z,99879.29
2022-11-04T20:47:00.241Z,99894.79
2022-11-04T20:52:03.405Z,99894.90
2022-11-04T20:57:06.341Z,99891.20
2022-11-04T21:02:10.931Z,99892.63
2022-11-04T21:07:14.108Z,99895.83
2022-11-04T21:12:19.107Z,99902.75
2022-11-04T21:17:22.074Z,99892.19
2022-11-04T21:22:25.038Z,99891.77
2022-11-04T21:27:27.899Z,99888.73
2022-11-04T21:32:31.321Z,99880.62
2022-11-04T21:37:37.020Z,99879.36
2022-11-04T21:42:40.196Z,99876.02
2022-11-04T21:47:43.068Z,99874.91
2022-11-04T21:52:46.025Z,99878.89
2022-11-04T21:57:48.868Z,99884.77
2022-11-04T22:02:51.856Z,99871.33
2022-11-04T22:08:13.811Z,99872.01
2022-11-04T22:13:16.669Z,99873.68
2022-11-04T22:18:19.437Z,99886.29
2022-11-04T22:23:22.431Z,99885.58
2022-11-04T22:28:25.312Z,99885.27
2022-11-04T22:33:31.741Z,99888.03
2022-11-04T22:38:35.656Z,99887.70
2022-11-04T22:43:38.559Z,99886.64
2022-11-04T22:48:41.460Z,99875.48
2022-11-04T22:53:44.489Z,99877.09
2022-11-04T22:58:47.320Z,99880.07
2022-11-04T23:03:52.112Z,99885.32
2022-11-04T23:09:00.306Z,99891.23
2022-11-04T23:14:22.205Z,99891.84
2022-11-04T23:19:30.627Z,99893.08
2022-11-04T23:24:52.815Z,99895.30
2022-11-04T23:30:14.590Z,99894.09
2022-11-04T23:35:36.840Z,99889.95
2022-11-04T23:40:39.801Z,99887.70
2022-11-04T23:46:01.342Z,99894.96
2022-11-04T23:51:22.887Z,99895.67
2022-11-04T23:56:45.619Z,99907.12
